createdAt,value
2024-04-18T00:01:20.528Z,10.27
2024-04-18T00:03:47.887Z,10.28
2024-04-18T00:06:15.907Z,10.26
2024-04-18T00:08:43.223Z,10.25
2024-04-18T00:11:25.959Z,10.28
2024-04-18T00:13:53.260Z,10.27
2024-04-18T00:16:36.048Z,10.26
2024-04-18T00:19:19.444Z,10.27
2024-04-18T00:22:04.370Z,10.28
2024-04-18T00:24:32.094Z,10.25
2024-04-18T00:27:19.394Z,10.21
2024-04-18T00:29:47.958Z,10.19
2024-04-18T00:32:17.107Z,10.17
2024-04-18T00:35:04.562Z,10.15
2024-04-18T00:37:38.283Z,10.15
2024-04-18T00:40:06.130Z,10.13
2024-04-18T00:42:40.327Z,10.13
2024-04-18T00:45:08.516Z,10.12
2024-04-18T00:47:49.780Z,10.11
2024-04-18T00:50:19.422Z,10.10
2024-04-18T00:52:48.076Z,10.08
2024-04-18T00:55:31.473Z,10.07
2024-04-18T00:58:12.605Z,10.06
2024-04-18T01:00:44.750Z,10.03
2024-04-18T01:03:36.162Z,10.00
2024-04-18T01:06:10.709Z,9.97
2024-04-18T01:08:57.452Z,9.96
2024-04-18T01:11:31.138Z,9.92
2024-04-18T01:14:01.139Z,9.91
2024-04-18T01:16:48.363Z,9.90
2024-04-18T01:19:20.527Z,9.91
2024-04-18T01:21:50.873Z,9.93
2024-04-18T01:24:18.100Z,9.92
2024-04-18T01:26:45.369Z,9.90
2024-04-18T01:29:12.572Z,9.87
2024-04-18T01:31:59.835Z,9.85
2024-04-18T01:34:27.360Z,9.85
2024-04-18T01:37:14.410Z,9.81
2024-04-18T01:39:42.657Z,9.79
2024-04-18T01:42:10.005Z,9.76
2024-04-18T01:44:43.703Z,9.74
2024-04-18T01:47:29.679Z,9.69
2024-04-18T01:50:09.617Z,9.66
2024-04-18T01:52:40.801Z,9.63
2024-04-18T01:55:09.488Z,9.63
2024-04-18T01:57:39.669Z,9.62
2024-04-18T02:00:27.729Z,9.60
2024-04-18T02:02:55.083Z,9.59
2024-04-18T02:05:40.847Z,9.58
2024-04-18T02:08:14.601Z,9.55
2024-04-18T02:10:51.494Z,9.50
2024-04-18T02:13:37.487Z,9.48
2024-04-18T02:16:05.964Z,9.43
2024-04-18T02:19:07.969Z,9.38
2024-04-18T02:21:56.110Z,9.35
2024-04-18T02:24:36.184Z,9.33
2024-04-18T02:27:03.439Z,9.27
2024-04-18T02:29:30.656Z,9.23
2024-04-18T02:32:01.138Z,9.20
2024-04-18T02:34:31.160Z,9.20
2024-04-18T02:36:58.365Z,9.18
2024-04-18T02:39:25.850Z,9.16
2024-04-18T02:41:53.177Z,9.14
2024-04-18T02:44:49.209Z,9.12
2024-04-18T02:47:17.064Z,9.13
2024-04-18T02:50:04.380Z,9.06
2024-04-18T02:52:31.628Z,9.06
2024-04-18T02:54:58.856Z,9.03
2024-04-18T02:57:26.274Z,8.99
2024-04-18T02:59:53.490Z,8.98
2024-04-18T03:02:27.530Z,8.98
2024-04-18T03:05:13.212Z,8.96
2024-04-18T03:07:40.545Z,8.96
2024-04-18T03:10:08.094Z,8.96
2024-04-18T03:12:56.104Z,8.92
2024-04-18T03:15:47.170Z,8.88
2024-04-18T03:18:15.013Z,8.84
2024-04-18T03:20:42.801Z,8.81
2024-04-18T03:23:10.869Z,8.76
2024-04-18T03:25:59.839Z,8.71
2024-04-18T03:28:27.174Z,8.67
2024-04-18T03:30:54.452Z,8.63
2024-04-18T03:33:21.861Z,8.60
2024-04-18T03:35:49.205Z,8.55
2024-04-18T03:38:17.338Z,8.52
2024-04-18T03:40:56.148Z,8.49
2024-04-18T03:43:23.396Z,8.45
2024-04-18T03:46:01.297Z,8.43
2024-04-18T03:48:31.791Z,8.39
2024-04-18T03:50:59.416Z,8.35
2024-04-18T03:53:46.572Z,8.34
2024-04-18T03:56:14.053Z,8.31
2024-04-18T03:58:41.316Z,8.28
2024-04-18T04:01:08.761Z,8.26
2024-04-18T04:03:36.241Z,8.25
2024-04-18T04:06:03.574Z,8.26
2024-04-18T04:08:30.836Z,8.24
2024-04-18T04:11:13.195Z,8.23
2024-04-18T04:13:40.636Z,8.20
2024-04-18T04:16:21.281Z,8.19
2024-04-18T04:19:08.592Z,8.17
2024-04-18T04:21:51.140Z,8.14
2024-04-18T04:24:18.484Z,8.13
2024-04-18T04:26:52.288Z,8.13
2024-04-18T04:29:20.222Z,8.10
2024-04-18T04:31:47.798Z,8.08
2024-04-18T04:34:15.125Z,8.09
2024-04-18T04:36:43.258Z,8.09
2024-04-18T04:39:10.547Z,8.13
2024-04-18T04:41:41.246Z,8.15
2024-04-18T04:44:08.567Z,8.16
2024-04-18T04:46:52.434Z,8.14
2024-04-18T04:49:20.866Z,8.14
2024-04-18T04:52:00.869Z,8.12
2024-04-18T04:54:44.224Z,8.09
2024-04-18T04:57:12.322Z,8.11
2024-04-18T04:59:39.683Z,8.11
2024-04-18T05:02:07.295Z,8.14
2024-04-18T05:04:50.916Z,8.17
2024-04-18T05:07:30.224Z,8.17
2024-04-18T05:09:57.933Z,8.16
2024-04-18T05:12:25.216Z,8.15
2024-04-18T05:14:52.459Z,8.15
2024-04-18T05:17:38.620Z,8.13
2024-04-18T05:20:12.193Z,8.11
2024-04-18T05:22:39.778Z,8.10
2024-04-18T05:25:07.851Z,8.09
2024-04-18T05:27:43.949Z,8.10
2024-04-18T05:30:50.245Z,8.09
2024-04-18T05:33:17.881Z,8.09
2024-04-18T05:35:45.872Z,8.11
2024-04-18T05:38:13.050Z,8.12
2024-04-18T05:40:40.268Z,8.15
2024-04-18T05:43:07.858Z,8.18
2024-04-18T05:45:48.450Z,8.20
2024-04-18T05:48:16.032Z,8.22
2024-04-18T05:50:43.538Z,8.25
2024-04-18T05:53:23.053Z,8.27
2024-04-18T05:55:56.071Z,8.29
2024-04-18T05:58:23.399Z,8.40
2024-04-18T06:00:59.856Z,8.70
2024-04-18T06:03:27.381Z,9.16
2024-04-18T06:05:55.249Z,9.64
2024-04-18T06:08:22.452Z,10.12
2024-04-18T06:10:49.978Z,10.55
2024-04-18T06:13:23.888Z,10.95
2024-04-18T06:15:51.355Z,11.32
2024-04-18T06:18:19.198Z,11.66
2024-04-18T06:20:48.392Z,12.00
2024-04-18T06:23:15.938Z,12.31
2024-04-18T06:25:43.843Z,12.57
2024-04-18T06:28:12.621Z,12.81
2024-04-18T06:30:43.058Z,13.02
2024-04-18T06:33:13.413Z,13.17
2024-04-18T06:35:42.825Z,13.33
2024-04-18T06:38:10.221Z,13.50
2024-04-18T06:40:37.807Z,13.66
2024-04-18T06:43:05.189Z,13.77
2024-04-18T06:45:32.521Z,13.89
2024-04-18T06:47:59.857Z,14.06
2024-04-18T06:50:28.328Z,14.23
2024-04-18T06:52:56.080Z,14.43
2024-04-18T06:55:24.102Z,14.59
2024-04-18T06:57:51.582Z,14.76
2024-04-18T07:00:18.999Z,14.96
2024-04-18T07:02:46.583Z,15.14
2024-04-18T07:05:32.105Z,15.32
2024-04-18T07:08:18.400Z,15.45
2024-04-18T07:10:45.751Z,15.57
2024-04-18T07:13:29.410Z,15.74
2024-04-18T07:16:02.418Z,15.87
2024-04-18T07:18:48.447Z,16.05
2024-04-18T07:21:17.056Z,16.21
2024-04-18T07:23:44.260Z,16.36
2024-04-18T07:26:11.494Z,16.51
2024-04-18T07:28:38.730Z,16.66
2024-04-18T07:31:06.015Z,16.49
2024-04-18T07:33:34.940Z,16.34
2024-04-18T07:36:16.213Z,16.00
2024-04-18T07:38:43.466Z,15.66
2024-04-18T07:41:10.715Z,15.76
2024-04-18T07:43:37.969Z,15.93
2024-04-18T07:46:05.514Z,15.66
2024-04-18T07:48:33.131Z,15.39
2024-04-18T07:51:00.505Z,15.05
2024-04-18T07:53:28.327Z,14.76
2024-04-18T07:55:55.654Z,14.51
2024-04-18T07:58:27.821Z,14.32
2024-04-18T08:00:56.948Z,14.20
2024-04-18T08:03:27.449Z,14.07
2024-04-18T08:05:58.283Z,13.94
2024-04-18T08:08:30.862Z,13.82
2024-04-18T08:11:16.506Z,13.70
2024-04-18T08:13:50.092Z,13.59
2024-04-18T08:16:20.122Z,13.54
2024-04-18T08:18:47.396Z,13.50
2024-04-18T08:21:14.746Z,13.42
2024-04-18T08:23:42.017Z,13.34
2024-04-18T08:26:09.272Z,13.29
2024-04-18T08:28:36.543Z,13.22
2024-04-18T08:31:03.778Z,13.11
2024-04-18T08:33:31.225Z,13.03
2024-04-18T08:35:58.685Z,12.97
2024-04-18T08:38:26.217Z,12.91
2024-04-18T08:40:53.893Z,12.87
2024-04-18T08:43:21.173Z,12.81
2024-04-18T08:45:49.272Z,12.72
2024-04-18T08:48:18.369Z,12.70
2024-04-18T08:50:47.180Z,12.66
2024-04-18T08:53:14.488Z,12.61
2024-04-18T08:55:49.499Z,12.58
2024-04-18T08:58:20.446Z,12.57
2024-04-18T09:00:48.091Z,12.57
2024-04-18T09:03:16.069Z,12.61
2024-04-18T09:05:45.251Z,12.65
2024-04-18T09:08:14.355Z,12.72
2024-04-18T09:10:42.345Z,12.80
2024-04-18T09:13:11.209Z,12.91
2024-04-18T09:15:38.706Z,12.94
2024-04-18T09:18:08.027Z,12.93
2024-04-18T09:20:36.919Z,12.95
2024-04-18T09:23:05.536Z,12.95
2024-04-18T09:25:36.384Z,12.92
2024-04-18T09:28:06.140Z,12.90
2024-04-18T09:30:33.555Z,12.91
2024-04-18T09:33:06.818Z,12.95
2024-04-18T09:35:36.976Z,12.96
2024-04-18T09:38:10.298Z,13.01
2024-04-18T09:40:42.501Z,13.04
2024-04-18T09:43:27.760Z,13.06
2024-04-18T09:46:11.028Z,13.12
2024-04-18T09:48:38.763Z,13.21
2024-04-18T09:51:07.512Z,13.29
2024-04-18T09:53:35.674Z,13.34
2024-04-18T09:56:03.487Z,13.38
2024-04-18T09:58:30.781Z,13.40
2024-04-18T10:00:58.365Z,13.37
2024-04-18T10:03:26.496Z,13.36
2024-04-18T10:05:57.680Z,13.38
2024-04-18T10:08:31.071Z,13.44
2024-04-18T10:10:59.205Z,13.54
2024-04-18T10:13:26.835Z,13.61
2024-04-18T10:16:24.572Z,13.69
2024-04-18T10:18:54.286Z,13.76
2024-04-18T10:21:33.105Z,13.76
2024-04-18T10:24:11.081Z,13.79
2024-04-18T10:26:39.742Z,13.86
2024-04-18T10:29:27.796Z,13.95
2024-04-18T10:32:01.883Z,14.05
2024-04-18T10:34:31.162Z,14.18
2024-04-18T10:37:04.239Z,14.26
2024-04-18T10:39:32.350Z,14.33
2024-04-18T10:42:03.040Z,14.32
2024-04-18T10:44:31.142Z,14.27
2024-04-18T10:46:58.701Z,14.22
2024-04-18T10:49:26.537Z,14.18
2024-04-18T10:51:55.190Z,14.17
2024-04-18T10:54:22.431Z,14.18
2024-04-18T10:56:51.455Z,14.19
2024-04-18T10:59:18.658Z,14.23
2024-04-18T11:01:46.005Z,14.29
2024-04-18T11:04:13.510Z,14.36
2024-04-18T11:06:41.437Z,14.42
2024-04-18T11:09:09.255Z,14.49
2024-04-18T11:11:39.587Z,14.54
2024-04-18T11:14:09.456Z,14.68
2024-04-18T11:16:38.194Z,14.79
2024-04-18T11:19:05.832Z,14.89
2024-04-18T11:21:33.254Z,15.01
2024-04-18T11:24:00.694Z,15.10
2024-04-18T11:26:33.443Z,15.20
2024-04-18T11:29:02.608Z,15.31
2024-04-18T11:31:29.816Z,15.41
2024-04-18T11:33:57.741Z,15.52
2024-04-18T11:36:26.501Z,15.55
2024-04-18T11:38:53.761Z,15.53
2024-04-18T11:41:21.152Z,15.53
2024-04-18T11:43:48.339Z,15.47
2024-04-18T11:46:16.026Z,15.47
2024-04-18T11:48:43.468Z,15.47
2024-04-18T11:51:10.820Z,15.46
2024-04-18T11:53:38.060Z,15.51
2024-04-18T11:56:05.571Z,15.60
2024-04-18T11:58:32.818Z,15.67
2024-04-18T12:01:00.041Z,15.75
2024-04-18T12:03:41.537Z,15.86
2024-04-18T12:06:28.405Z,15.94
2024-04-18T12:08:56.647Z,15.92
2024-04-18T12:11:33.634Z,15.87
2024-04-18T12:14:16.008Z,15.83
2024-04-18T12:16:55.689Z,15.77
2024-04-18T12:19:42.708Z,15.74
2024-04-18T12:22:30.808Z,15.73
2024-04-18T12:25:19.499Z,15.74
2024-04-18T12:27:47.600Z,15.74
2024-04-18T12:30:31.316Z,15.66
2024-04-18T12:33:20.378Z,15.58
2024-04-18T12:35:48.848Z,15.54
2024-04-18T12:38:17.035Z,15.50
2024-04-18T12:40:45.186Z,15.48
2024-04-18T12:43:19.003Z,15.48
2024-04-18T12:46:06.408Z,15.49
2024-04-18T12:48:51.388Z,15.48
2024-04-18T12:51:18.966Z,15.49
2024-04-18T12:53:46.417Z,15.49
2024-04-18T12:56:14.212Z,15.49
2024-04-18T12:58:44.567Z,15.44
2024-04-18T13:01:13.134Z,15.38
2024-04-18T13:03:41.536Z,15.35
2024-04-18T13:06:28.642Z,15.32
2024-04-18T13:08:58.103Z,15.37
2024-04-18T13:11:43.336Z,15.50
2024-04-18T13:14:11.182Z,15.68
2024-04-18T13:16:38.684Z,15.84
2024-04-18T13:19:12.440Z,16.00
2024-04-18T13:21:40.268Z,16.11
2024-04-18T13:24:12.201Z,16.16
2024-04-18T13:26:52.374Z,16.23
2024-04-18T13:29:20.298Z,16.21
2024-04-18T13:31:47.930Z,16.17
2024-04-18T13:34:22.375Z,16.15
2024-04-18T13:36:50.073Z,16.12
2024-04-18T13:39:17.885Z,16.07
2024-04-18T13:42:04.560Z,16.06
2024-04-18T13:44:54.431Z,16.03
2024-04-18T13:47:44.540Z,15.98
2024-04-18T13:50:11.944Z,15.93
2024-04-18T13:52:39.640Z,15.85
2024-04-18T13:55:07.162Z,15.78
2024-04-18T13:57:34.763Z,15.71
2024-04-18T14:00:21.055Z,15.65
2024-04-18T14:02:52.109Z,15.59
2024-04-18T14:05:20.692Z,15.54
2024-04-18T14:08:03.868Z,15.49
2024-04-18T14:10:31.804Z,15.45
2024-04-18T14:13:17.858Z,15.39
2024-04-18T14:16:08.230Z,15.33
2024-04-18T14:18:54.722Z,15.27
2024-04-18T14:21:35.306Z,15.20
2024-04-18T14:24:02.896Z,15.19
2024-04-18T14:26:30.132Z,15.17
2024-04-18T14:29:17.771Z,15.19
2024-04-18T14:32:01.936Z,15.18
2024-04-18T14:34:48.970Z,15.16
2024-04-18T14:37:19.338Z,15.12
2024-04-18T14:39:47.671Z,15.10
2024-04-18T14:42:14.975Z,15.08
2024-04-18T14:44:42.943Z,15.04
2024-04-18T14:47:17.526Z,15.02
2024-04-18T14:50:01.920Z,15.03
2024-04-18T14:52:34.919Z,15.06
2024-04-18T14:55:25.984Z,15.08
2024-04-18T14:58:02.148Z,15.09
2024-04-18T15:00:52.476Z,15.09
2024-04-18T15:03:20.558Z,15.09
2024-04-18T15:05:55.175Z,15.12
2024-04-18T15:08:39.330Z,15.20
2024-04-18T15:11:25.321Z,15.35
2024-04-18T15:14:07.526Z,15.39
2024-04-18T15:16:35.361Z,15.40
2024-04-18T15:19:02.795Z,15.38
2024-04-18T15:21:50.486Z,15.39
2024-04-18T15:24:18.203Z,15.37
2024-04-18T15:27:01.949Z,15.33
2024-04-18T15:29:29.150Z,15.33
2024-04-18T15:32:16.055Z,15.36
2024-04-18T15:34:45.973Z,15.39
2024-04-18T15:37:32.098Z,15.39
2024-04-18T15:39:59.482Z,15.37
2024-04-18T15:42:26.873Z,15.34
2024-04-18T15:44:54.359Z,15.37
2024-04-18T15:47:31.578Z,15.41
2024-04-18T15:50:18.864Z,15.44
2024-04-18T15:52:46.499Z,15.47
2024-04-18T15:55:30.948Z,15.48
2024-04-18T15:58:18.452Z,15.50
2024-04-18T16:00:45.871Z,15.50
2024-04-18T16:03:34.450Z,15.53
2024-04-18T16:06:24.782Z,15.52
2024-04-18T16:09:11.895Z,15.51
2024-04-18T16:11:40.420Z,15.52
2024-04-18T16:14:28.047Z,15.53
2024-04-18T16:16:55.387Z,15.50
2024-04-18T16:19:38.158Z,15.45
2024-04-18T16:22:06.046Z,15.43
2024-04-18T16:24:49.005Z,15.39
2024-04-18T16:27:17.494Z,15.34
2024-04-18T16:30:02.547Z,15.26
2024-04-18T16:32:42.144Z,15.17
2024-04-18T16:35:09.525Z,15.11
2024-04-18T16:37:40.695Z,15.04
2024-04-18T16:40:17.775Z,14.97
2024-04-18T16:43:03.287Z,14.91
2024-04-18T16:45:50.716Z,14.89
2024-04-18T16:48:18.096Z,14.86
2024-04-18T16:50:45.525Z,14.82
2024-04-18T16:53:12.764Z,14.76
2024-04-18T16:55:43.273Z,14.71
2024-04-18T16:58:17.902Z,14.67
2024-04-18T17:00:55.023Z,14.61
2024-04-18T17:03:22.476Z,14.55
2024-04-18T17:06:02.485Z,14.51
2024-04-18T17:08:29.770Z,14.48
2024-04-18T17:10:57.151Z,14.44
2024-04-18T17:13:42.830Z,14.41
2024-04-18T17:16:10.825Z,14.35
2024-04-18T17:18:46.207Z,14.30
2024-04-18T17:21:13.765Z,14.25
2024-04-18T17:23:41.083Z,14.22
2024-04-18T17:26:08.364Z,14.16
2024-04-18T17:28:35.635Z,14.11
2024-04-18T17:31:03.222Z,14.09
2024-04-18T17:33:30.593Z,14.05
2024-04-18T17:36:01.148Z,13.99
2024-04-18T17:38:48.353Z,13.95
2024-04-18T17:41:32.237Z,13.93
2024-04-18T17:44:18.211Z,13.86
2024-04-18T17:46:57.946Z,13.81
2024-04-18T17:49:25.986Z,13.78
2024-04-18T17:51:54.417Z,13.75
2024-04-18T17:54:22.711Z,13.73
2024-04-18T17:56:50.383Z,13.72
2024-04-18T17:59:17.979Z,13.71
2024-04-18T18:01:45.759Z,13.68
2024-04-18T18:04:16.287Z,13.64
2024-04-18T18:06:43.557Z,13.62
2024-04-18T18:09:10.871Z,13.61
2024-04-18T18:11:38.226Z,13.58
2024-04-18T18:14:05.624Z,13.57
2024-04-18T18:16:51.451Z,13.55
2024-04-18T18:19:18.815Z,13.52
2024-04-18T18:21:58.819Z,13.48
2024-04-18T18:24:26.440Z,13.48
2024-04-18T18:26:54.548Z,13.46
2024-04-18T18:29:22.131Z,13.45
2024-04-18T18:32:13.996Z,13.43
2024-04-18T18:34:48.906Z,13.41
2024-04-18T18:37:17.218Z,13.37
2024-04-18T18:40:05.965Z,13.35
2024-04-18T18:42:33.364Z,13.31
2024-04-18T18:45:00.642Z,13.31
2024-04-18T18:47:28.078Z,13.29
2024-04-18T18:49:55.597Z,13.26
2024-04-18T18:52:24.021Z,13.25
2024-04-18T18:54:51.495Z,13.24
2024-04-18T18:57:18.870Z,13.23
2024-04-18T18:59:49.336Z,13.22
2024-04-18T19:02:17.113Z,13.18
2024-04-18T19:05:02.472Z,13.16
2024-04-18T19:07:29.796Z,13.13
2024-04-18T19:09:57.174Z,13.12
2024-04-18T19:12:25.575Z,13.07
2024-04-18T19:14:53.443Z,13.07
2024-04-18T19:17:20.744Z,13.05
2024-04-18T19:19:47.971Z,13.03
2024-04-18T19:22:15.864Z,13.02
2024-04-18T19:24:43.393Z,12.98
2024-04-18T19:27:10.788Z,12.94
2024-04-18T19:29:46.092Z,12.91
2024-04-18T19:32:17.165Z,12.86
2024-04-18T19:34:44.490Z,12.84
2024-04-18T19:37:11.767Z,12.79
2024-04-18T19:39:39.034Z,12.77
2024-04-18T19:42:06.545Z,12.75
2024-04-18T19:44:34.390Z,12.73
2024-04-18T19:47:01.669Z,12.70
2024-04-18T19:49:29.808Z,12.69
2024-04-18T19:51:58.703Z,12.68
2024-04-18T19:54:27.331Z,12.66
2024-04-18T19:56:54.853Z,12.64
2024-04-18T19:59:22.519Z,12.62
2024-04-18T20:01:50.007Z,12.62
2024-04-18T20:04:17.925Z,12.62
2024-04-18T20:06:45.234Z,12.61
2024-04-18T20:09:12.482Z,12.62
2024-04-18T20:11:39.787Z,12.62
2024-04-18T20:14:07.044Z,12.61
2024-04-18T20:16:35.207Z,12.60
2024-04-18T20:19:16.475Z,12.57
2024-04-18T20:21:44.977Z,12.57
2024-04-18T20:24:13.570Z,12.57
2024-04-18T20:27:13.056Z,12.53
2024-04-18T20:29:46.419Z,12.51
2024-04-18T20:32:26.450Z,12.50
2024-04-18T20:34:54.793Z,12.49
2024-04-18T20:37:23.265Z,12.49
2024-04-18T20:39:51.520Z,12.49
2024-04-18T20:42:20.374Z,12.49
2024-04-18T20:45:00.412Z,12.50
2024-04-18T20:47:28.029Z,12.51
2024-04-18T20:49:55.426Z,12.51
2024-04-18T20:52:23.404Z,12.49
2024-04-18T20:54:51.351Z,12.50
2024-04-18T20:57:18.867Z,12.50
2024-04-18T20:59:46.173Z,12.50
2024-04-18T21:02:13.564Z,12.51
2024-04-18T21:04:41.869Z,12.50
2024-04-18T21:07:09.057Z,12.52
2024-04-18T21:09:36.749Z,12.51
2024-04-18T21:12:04.141Z,12.50
2024-04-18T21:14:31.376Z,12.52
2024-04-18T21:17:01.177Z,12.50
2024-04-18T21:19:28.416Z,12.50
2024-04-18T21:21:55.655Z,12.50
2024-04-18T21:24:23.423Z,12.52
2024-04-18T21:26:50.715Z,12.51
2024-04-18T21:29:18.243Z,12.51
2024-04-18T21:31:45.509Z,12.51
2024-04-18T21:34:12.998Z,12.50
2024-04-18T21:36:40.426Z,12.51
2024-04-18T21:39:08.043Z,12.53
2024-04-18T21:41:39.189Z,12.52
2024-04-18T21:44:06.587Z,12.51
2024-04-18T21:46:33.964Z,12.51
2024-04-18T21:49:01.307Z,12.52
2024-04-18T21:51:28.791Z,12.50
2024-04-18T21:53:56.148Z,12.48
2024-04-18T21:56:23.694Z,12.46
2024-04-18T21:58:53.924Z,12.47
2024-04-18T22:01:40.199Z,12.46
2024-04-18T22:04:07.495Z,12.46
2024-04-18T22:06:34.863Z,12.46
2024-04-18T22:09:02.181Z,12.46
2024-04-18T22:11:29.455Z,12.48
2024-04-18T22:13:57.278Z,12.46
2024-04-18T22:16:24.630Z,12.46
2024-04-18T22:18:52.203Z,12.46
2024-04-18T22:21:37.064Z,12.46
2024-04-18T22:24:08.020Z,12.46
2024-04-18T22:26:36.054Z,12.48
2024-04-18T22:29:03.358Z,12.47
2024-04-18T22:31:30.575Z,12.45
2024-04-18T22:33:58.441Z,12.46
2024-04-18T22:36:29.061Z,12.44
2024-04-18T22:38:57.829Z,12.41
2024-04-18T22:41:27.551Z,12.37
2024-04-18T22:43:54.935Z,12.32
2024-04-18T22:46:22.251Z,12.27
2024-04-18T22:48:49.637Z,12.22
2024-04-18T22:51:17.404Z,12.15
2024-04-18T22:53:44.677Z,12.14
2024-04-18T22:56:11.869Z,12.13
2024-04-18T22:58:39.072Z,12.09
2024-04-18T23:01:06.661Z,12.06
2024-04-18T23:03:34.169Z,12.00
2024-04-18T23:06:14.286Z,11.99
2024-04-18T23:08:41.971Z,11.97
2024-04-18T23:11:09.231Z,11.96
2024-04-18T23:13:36.576Z,11.94
2024-04-18T23:16:03.958Z,11.89
2024-04-18T23:18:31.313Z,11.88
2024-04-18T23:20:58.632Z,11.85
2024-04-18T23:23:34.942Z,11.83
2024-04-18T23:26:02.378Z,11.79
2024-04-18T23:28:29.608Z,11.76
2024-04-18T23:30:57.365Z,11.76
2024-04-18T23:33:24.723Z,11.76
2024-04-18T23:35:52.035Z,11.75
2024-04-18T23:38:19.398Z,11.73
2024-04-18T23:40:46.761Z,11.73
2024-04-18T23:43:13.984Z,11.74
2024-04-18T23:45:41.233Z,11.71
2024-04-18T23:48:10.219Z,11.71
2024-04-18T23:50:37.614Z,11.71
2024-04-18T23:53:05.166Z,11.69
2024-04-18T23:55:32.489Z,11.66
2024-04-18T23:58:00.235Z,11.67
